Time;durP1;ratioP1;P1;durP2;ratioP2;P2;SDS_P1;SDS_P2;PMS_P1;PMS_P2;Temp;Humidity;BMP_temperature;BMP_pressure;BME280_temperature;BME280_humidity;BME280_pressure;Samples;Min_cycle;Max_cycle;Signal;HPM_P1;HPM_P2
2021/08/26 00:06:42;;;;;;;19.33;16.33;;;16.60;99.90;;;;;;5093057;28;20392;-69
2021/08/26 00:09:09;;;;;;;22.95;16.55;;;16.60;99.90;;;;;;5075016;28;20024;-68
2021/08/26 00:11:36;;;;;;;22.52;16.63;;;16.60;99.90;;;;;;5092909;28;20423;-71
2021/08/26 00:14:02;;;;;;;24.60;17.00;;;16.60;99.90;;;;;;5074998;28;20028;-70
2021/08/26 00:16:28;;;;;;;20.40;17.10;;;16.60;99.90;;;;;;5093379;28;20032;-69
2021/08/26 00:18:55;;;;;;;27.77;17.00;;;16.60;99.90;;;;;;5093117;28;20487;-73
2021/08/26 00:21:20;;;;;;;20.80;16.38;;;16.60;99.90;;;;;;5093126;28;20063;-69
2021/08/26 00:23:47;;;;;;;24.67;16.73;;;16.50;99.90;;;;;;5074841;28;20063;-69
2021/08/26 00:26:13;;;;;;;24.73;16.60;;;16.50;99.90;;;;;;5093015;28;20086;-69
2021/08/26 00:28:40;;;;;;;21.70;17.25;;;16.50;99.90;;;;;;5074996;28;20094;-70
2021/08/26 00:31:06;;;;;;;20.45;16.73;;;16.50;99.90;;;;;;5093021;28;20054;-69
2021/08/26 00:33:32;;;;;;;26.70;17.42;;;16.50;99.90;;;;;;5093273;28;20028;-72
2021/08/26 00:35:58;;;;;;;28.02;17.98;;;16.50;99.90;;;;;;5074855;28;20073;-73
2021/08/26 00:38:24;;;;;;;23.85;16.38;;;16.50;99.90;;;;;;5093295;28;20431;-68
2021/08/26 00:40:51;;;;;;;21.88;17.55;;;16.40;99.90;;;;;;5092906;28;20024;-68
2021/08/26 00:43:18;;;;;;;26.83;16.95;;;16.40;99.90;;;;;;5096568;28;20036;-68
2021/08/26 00:45:49;;;;;;;24.13;16.63;;;16.40;99.90;;;;;;5096967;28;20032;-70
2021/08/26 00:48:15;;;;;;;;;;;16.50;99.90;;;;;;5079070;28;20494;-70
2021/08/26 00:50:41;;;;;;;25.10;16.77;;;16.50;99.90;;;;;;5096843;28;19904;-71
2021/08/26 00:53:07;;;;;;;23.48;17.23;;;16.50;99.90;;;;;;5096837;28;20031;-70
2021/08/26 00:55:33;;;;;;;22.02;16.88;;;16.50;99.90;;;;;;5096441;28;20032;-70
2021/08/26 00:57:59;;;;;;;20.88;17.38;;;16.40;99.90;;;;;;5096569;28;20107;-69
2021/08/26 01:00:25;;;;;;;25.75;17.17;;;16.50;99.90;;;;;;5096334;28;20024;-69
2021/08/26 01:03:13;;;;;;;28.23;17.65;;;16.50;99.90;;;;;;5078333;28;20024;-69
2021/08/26 01:05:48;;;;;;;25.75;18.23;;;16.50;99.90;;;;;;5078631;28;20081;-68
2021/08/26 01:08:37;;;;;;;20.67;16.63;;;16.50;99.90;;;;;;5096581;28;20107;-70
2021/08/26 01:11:05;;;;;;;27.02;18.45;;;16.50;99.90;;;;;;5078309;28;20043;-72
2021/08/26 01:13:38;;;;;;;21.90;17.45;;;16.50;99.90;;;;;;5078187;28;20128;-72
2021/08/26 01:16:09;;;;;;;24.38;17.40;;;16.50;99.90;;;;;;5096372;28;20465;-70
2021/08/26 01:18:41;;;;;;;23.98;17.88;;;16.40;99.90;;;;;;5096657;28;20085;-68
2021/08/26 01:21:08;;;;;;;25.52;17.88;;;16.50;99.90;;;;;;5078103;28;20035;-70
2021/08/26 01:23:36;;;;;;;22.80;18.58;;;16.40;99.90;;;;;;5096057;28;20062;-71
2021/08/26 01:26:27;;;;;;;33.20;19.10;;;16.40;99.90;;;;;;5096115;28;20032;-71
2021/08/26 01:28:56;;;;;;;26.80;19.50;;;16.40;99.90;;;;;;5076922;28;20044;-71
2021/08/26 01:31:22;;;;;;;28.13;20.00;;;16.40;99.90;;;;;;5095801;28;20028;-70
2021/08/26 01:33:55;;;;;;;24.98;18.33;;;16.30;99.90;;;;;;5096032;28;20107;-70
2021/08/26 01:36:28;;;;;;;30.45;19.00;;;16.30;99.90;;;;;;5077793;28;20040;-68
2021/08/26 01:39:02;;;;;;;30.67;19.48;;;16.30;99.90;;;;;;5096018;28;20028;-69
2021/08/26 01:41:50;;;;;;;29.73;20.80;;;16.40;99.90;;;;;;5095602;28;20016;-70
2021/08/26 01:44:28;;;;;;;26.35;18.40;;;16.40;99.90;;;;;;5077560;28;20040;-69
2021/08/26 01:47:03;;;;;;;33.85;19.42;;;16.40;99.90;;;;;;5077635;28;20038;-70
2021/08/26 01:49:29;;;;;;;25.17;18.65;;;16.30;99.90;;;;;;5077542;28;20024;-68
2021/08/26 01:51:55;;;;;;;26.17;18.40;;;16.30;99.90;;;;;;5077396;28;20026;-68
2021/08/26 01:54:21;;;;;;;28.35;18.35;;;16.40;99.90;;;;;;5094630;28;20032;-68
2021/08/26 01:56:47;;;;;;;28.17;18.67;;;16.40;99.90;;;;;;5095297;28;20106;-67
2021/08/26 01:59:13;;;;;;;30.05;18.60;;;16.40;99.90;;;;;;5095823;28;20486;-68
2021/08/26 02:01:40;;;;;;;24.90;18.10;;;16.40;99.90;;;;;;5076827;28;20048;-71
2021/08/26 02:04:06;;;;;;;25.92;17.42;;;16.40;99.90;;;;;;5095317;28;20055;-69
2021/08/26 02:06:32;;;;;;;24.10;17.77;;;16.40;99.90;;;;;;5077206;28;20408;-68
2021/08/26 02:08:58;;;;;;;22.80;16.48;;;16.30;99.90;;;;;;5077263;28;20024;-71
2021/08/26 02:11:23;;;;;;;27.23;18.15;;;16.30;99.90;;;;;;5095332;28;20028;-71
2021/08/26 02:13:49;;;;;;;25.85;17.17;;;16.40;99.90;;;;;;5095246;28;20427;-69
2021/08/26 02:16:16;;;;;;;29.58;18.33;;;16.30;99.90;;;;;;5095145;28;20032;-70
2021/08/26 02:18:45;;;;;;;21.92;17.63;;;16.30;99.90;;;;;;5095232;28;20563;-71
2021/08/26 02:21:11;;;;;;;23.25;17.17;;;16.20;99.90;;;;;;5095372;28;20028;-70
2021/08/26 02:23:37;;;;;;;25.52;17.38;;;16.10;99.90;;;;;;5094749;28;20115;-71
2021/08/26 02:26:03;;;;;;;22.63;16.95;;;16.20;99.90;;;;;;5095005;28;20032;-71
2021/08/26 02:28:29;;;;;;;26.77;17.10;;;16.20;99.90;;;;;;5095088;28;20032;-71
2021/08/26 02:30:54;;;;;;;22.77;16.77;;;16.20;99.90;;;;;;5094701;28;20027;-70
2021/08/26 02:33:20;;;;;;;21.58;16.67;;;16.10;99.90;;;;;;5094978;28;20186;-70
2021/08/26 02:35:46;;;;;;;22.55;15.73;;;16.10;99.90;;;;;;5094572;28;20378;-71
2021/08/26 02:38:12;;;;;;;22.17;15.57;;;16.20;99.90;;;;;;5095093;28;20067;-68
2021/08/26 02:40:38;;;;;;;22.60;16.35;;;16.10;99.90;;;;;;5076571;28;20467;-69
2021/08/26 02:43:04;;;;;;;21.70;15.70;;;16.20;99.90;;;;;;5094634;28;20028;-71
2021/08/26 02:45:30;;;;;;;19.88;16.48;;;16.20;99.90;;;;;;5094707;28;20383;-69
2021/08/26 02:47:56;;;;;;;20.27;16.80;;;16.10;99.90;;;;;;5094899;28;20088;-68
2021/08/26 02:50:22;;;;;;;24.80;16.30;;;16.10;99.90;;;;;;5094310;28;20020;-67
2021/08/26 02:52:48;;;;;;;24.00;17.00;;;16.10;99.90;;;;;;5094736;28;20035;-68
2021/08/26 02:55:13;;;;;;;24.55;16.70;;;16.10;99.90;;;;;;5094718;28;20020;-69
2021/08/26 02:57:39;;;;;;;23.60;16.95;;;16.10;99.90;;;;;;5076185;28;20028;-70
2021/08/26 03:00:06;;;;;;;19.83;15.43;;;16.20;99.90;;;;;;5094064;28;20035;-69
2021/08/26 03:02:33;;;;;;;31.63;17.00;;;16.10;99.90;;;;;;5076064;28;20075;-70
2021/08/26 03:04:58;;;;;;;21.92;16.10;;;16.20;99.90;;;;;;5094033;28;20032;-70
2021/08/26 03:07:26;;;;;;;24.83;15.80;;;16.10;99.90;;;;;;5094233;28;20483;-70
2021/08/26 03:09:51;;;;;;;24.13;15.98;;;16.20;99.90;;;;;;5094264;28;20099;-69
2021/08/26 03:12:17;;;;;;;25.60;16.52;;;16.20;99.90;;;;;;5094223;28;20111;-68
2021/08/26 03:14:43;;;;;;;25.33;16.30;;;16.10;99.90;;;;;;5095087;28;20031;-69
2021/08/26 03:17:09;;;;;;;23.02;16.58;;;16.10;99.90;;;;;;5076656;28;20468;-70
2021/08/26 03:19:35;;;;;;;25.17;16.58;;;16.20;99.90;;;;;;5095103;28;20037;-69
2021/08/26 03:22:05;;;;;;;19.40;15.27;;;16.20;99.90;;;;;;5094629;28;20059;-70
2021/08/26 03:24:31;;;;;;;26.63;16.00;;;16.10;99.90;;;;;;5076073;28;20024;-69
2021/08/26 03:26:57;;;;;;;21.58;16.17;;;16.10;99.90;;;;;;5076596;28;20036;-69
2021/08/26 03:29:22;;;;;;;23.65;15.40;;;16.20;99.90;;;;;;5094780;28;20024;-70
2021/08/26 03:31:48;;;;;;;21.88;15.93;;;16.10;99.90;;;;;;5094835;28;20089;-69
2021/08/26 03:34:14;;;;;;;21.02;15.05;;;16.10;99.90;;;;;;5076403;28;20032;-69
2021/08/26 03:36:40;;;;;;;18.60;14.10;;;16.10;99.90;;;;;;5094879;28;20028;-71
2021/08/26 03:39:06;;;;;;;18.67;13.88;;;16.10;99.90;;;;;;5095290;28;20110;-70
2021/08/26 03:41:32;;;;;;;19.65;13.20;;;16.10;99.90;;;;;;5076274;28;20035;-69
2021/08/26 03:43:57;;;;;;;17.63;14.00;;;16.10;99.90;;;;;;5076360;28;20119;-70
2021/08/26 03:46:23;;;;;;;17.73;13.63;;;16.10;99.90;;;;;;5094591;28;20025;-71
2021/08/26 03:48:50;;;;;;;20.50;14.80;;;16.10;99.90;;;;;;5094070;28;20028;-69
2021/08/26 03:51:15;;;;;;;22.80;13.93;;;16.10;99.90;;;;;;5094263;28;20051;-71
2021/08/26 03:53:41;;;;;;;22.98;14.45;;;16.10;99.90;;;;;;5076187;28;20070;-69
2021/08/26 03:56:08;;;;;;;18.48;13.60;;;16.10;99.90;;;;;;5094040;28;20028;-68
2021/08/26 03:58:34;;;;;;;19.52;13.25;;;16.10;99.90;;;;;;5075314;28;20075;-69
2021/08/26 04:01:06;;;;;;;14.73;13.00;;;16.10;99.90;;;;;;5093192;28;20044;-72
2021/08/26 04:03:33;;;;;;;16.00;12.88;;;16.10;99.90;;;;;;5093267;28;20034;-70
2021/08/26 04:05:59;;;;;;;16.30;12.57;;;16.10;99.90;;;;;;5093241;28;20058;-70
2021/08/26 04:08:25;;;;;;;17.48;12.93;;;16.10;99.90;;;;;;5093261;28;20020;-70
2021/08/26 04:10:51;;;;;;;15.15;12.88;;;16.10;99.90;;;;;;5093126;28;20032;-70
2021/08/26 04:13:17;;;;;;;23.20;13.55;;;16.10;99.90;;;;;;5074996;28;20127;-69
2021/08/26 04:15:43;;;;;;;31.80;14.50;;;16.00;99.90;;;;;;5093261;28;20103;-71
2021/08/26 04:18:09;;;;;;;19.20;14.52;;;16.10;99.90;;;;;;5092693;28;20409;-69
2021/08/26 04:20:36;;;;;;;30.90;17.77;;;16.10;99.90;;;;;;5075004;28;20028;-70
2021/08/26 04:23:04;;;;;;;27.45;17.17;;;16.00;99.90;;;;;;5092996;28;20469;-69
2021/08/26 04:25:30;;;;;;;27.27;17.92;;;16.00;99.90;;;;;;5074842;28;20051;-70
2021/08/26 04:27:56;;;;;;;31.88;18.80;;;16.00;99.90;;;;;;5093267;28;20093;-71
2021/08/26 04:30:22;;;;;;;31.58;19.45;;;15.90;99.90;;;;;;5093093;28;20078;-70
2021/08/26 04:32:48;;;;;;;34.97;18.10;;;15.90;99.90;;;;;;5093011;28;20024;-71
2021/08/26 04:35:14;;;;;;;36.63;19.50;;;15.90;99.90;;;;;;5093285;28;20077;-71
2021/08/26 04:37:40;;;;;;;34.63;20.25;;;15.90;99.90;;;;;;5092949;28;20020;-69
2021/08/26 04:40:06;;;;;;;30.77;18.25;;;15.90;99.90;;;;;;5093146;28;20107;-71
2021/08/26 04:42:32;;;;;;;29.30;18.45;;;15.90;99.90;;;;;;5074666;28;20031;-70
2021/08/26 04:44:58;;;;;;;32.22;20.20;;;15.90;99.90;;;;;;5092847;28;20111;-70
2021/08/26 04:47:24;;;;;;;35.58;21.98;;;15.90;99.90;;;;;;5092855;28;20164;-69
2021/08/26 04:49:50;;;;;;;32.45;20.10;;;15.90;99.90;;;;;;5074694;28;20043;-70
2021/08/26 04:52:15;;;;;;;35.85;20.35;;;16.00;99.90;;;;;;5074629;28;20036;-71
2021/08/26 04:54:41;;;;;;;29.98;20.67;;;16.00;99.90;;;;;;5092803;28;20468;-70
2021/08/26 04:57:07;;;;;;;30.95;19.92;;;16.00;99.90;;;;;;5074597;28;20063;-70
2021/08/26 04:59:33;;;;;;;39.72;22.67;;;16.00;99.90;;;;;;5092771;28;20372;-70
2021/08/26 05:01:59;;;;;;;34.83;21.80;;;16.00;99.90;;;;;;5092208;28;20055;-69
2021/08/26 05:04:25;;;;;;;45.63;24.23;;;16.10;99.90;;;;;;5092634;28;20028;-70
2021/08/26 05:06:51;;;;;;;32.15;21.48;;;16.00;99.90;;;;;;5092687;28;20357;-69
2021/08/26 05:09:20;;;;;;;37.55;22.67;;;16.10;99.90;;;;;;5074531;28;20028;-69
2021/08/26 05:11:47;;;;;;;31.80;20.55;;;16.00;99.90;;;;;;5092631;28;20028;-69
2021/08/26 05:14:13;;;;;;;47.13;22.85;;;16.00;99.90;;;;;;5092628;28;20028;-70
2021/08/26 05:16:38;;;;;;;34.85;22.10;;;16.00;99.90;;;;;;5092618;28;20020;-70
2021/08/26 05:19:04;;;;;;;33.30;19.98;;;16.00;99.90;;;;;;5092607;28;20035;-68
2021/08/26 05:21:30;;;;;;;31.45;21.50;;;16.10;99.90;;;;;;5092228;28;20468;-71
2021/08/26 05:23:56;;;;;;;37.45;22.55;;;16.10;99.90;;;;;;5074299;28;20495;-70
2021/08/26 05:26:25;;;;;;;31.92;20.83;;;16.20;99.90;;;;;;5092458;28;20051;-71
2021/08/26 05:28:58;;;;;;;38.10;22.60;;;16.20;99.90;;;;;;5093544;28;20020;-71
2021/08/26 05:31:24;;;;;;;38.33;22.38;;;16.30;99.90;;;;;;5077816;28;20028;-71
2021/08/26 05:33:49;;;;;;;30.85;20.13;;;16.40;99.90;;;;;;5096006;28;20028;-68
2021/08/26 05:36:15;;;;;;;36.55;21.67;;;16.40;99.90;;;;;;5095880;28;20095;-69
2021/08/26 05:38:41;;;;;;;30.30;20.08;;;16.50;99.90;;;;;;5095860;28;20419;-70
2021/08/26 05:41:07;;;;;;;27.83;19.70;;;16.50;99.90;;;;;;5095439;28;20419;-69
2021/08/26 05:43:33;;;;;;;28.52;19.05;;;16.60;99.90;;;;;;5077392;28;20034;-70
2021/08/26 05:45:59;;;;;;;26.60;18.33;;;16.70;99.90;;;;;;5095652;28;20472;-70
2021/08/26 05:48:25;;;;;;;27.27;17.27;;;16.80;99.90;;;;;;5095511;28;20027;-70
2021/08/26 05:50:51;;;;;;;29.80;16.55;;;16.80;99.90;;;;;;5095446;28;20020;-71
2021/08/26 05:53:17;;;;;;;27.40;17.38;;;16.90;99.90;;;;;;5095488;28;20028;-70
2021/08/26 05:55:43;;;;;;;23.80;13.10;;;16.90;99.90;;;;;;5095515;28;20024;-69
2021/08/26 05:58:08;;;;;;;24.55;13.40;;;17.00;99.90;;;;;;5095494;28;20055;-69
2021/08/26 06:00:34;;;;;;;23.90;14.45;;;17.10;99.90;;;;;;5076748;28;20125;-71
2021/08/26 06:03:01;;;;;;;23.23;15.25;;;;;;;;;;5095255;28;20028;-70
2021/08/26 06:05:27;;;;;;;22.13;15.00;;;17.20;99.90;;;;;;5095353;28;20365;-69
2021/08/26 06:07:52;;;;;;;24.15;15.57;;;17.20;99.90;;;;;;5094962;28;20031;-70
2021/08/26 06:10:18;;;;;;;21.10;13.82;;;17.20;99.90;;;;;;5077081;28;20102;-69
2021/08/26 06:12:44;;;;;;;28.80;15.43;;;17.30;99.90;;;;;;5095282;28;20024;-70
2021/08/26 06:15:12;;;;;;;23.10;14.70;;;17.30;99.90;;;;;;5077022;28;20067;-71
2021/08/26 06:17:38;;;;;;;19.58;14.55;;;;;;;;;;5095139;28;20020;-70
2021/08/26 06:20:05;;;;;;;21.23;13.20;;;;;;;;;;5095113;28;20024;-69
2021/08/26 06:22:31;;;;;;;28.73;15.75;;;17.50;99.90;;;;;;5095065;28;20464;-70
2021/08/26 06:24:57;;;;;;;26.73;13.77;;;17.60;99.90;;;;;;5094621;28;20028;-69
2021/08/26 06:27:23;;;;;;;24.40;13.75;;;17.70;99.90;;;;;;5076726;28;20388;-71
2021/08/26 06:29:49;;;;;;;22.77;14.23;;;17.70;99.90;;;;;;5076666;28;20028;-72
2021/08/26 06:32:15;;;;;;;23.30;13.43;;;17.70;99.90;;;;;;5094506;28;20028;-70
2021/08/26 06:34:41;;;;;;;23.70;12.85;;;;;;;;;;5074058;28;20442;-70
2021/08/26 06:37:07;;;;;;;25.33;15.48;;;;;;;;;;5074697;28;20024;-70
2021/08/26 06:39:33;;;;;;;19.45;12.88;;;17.80;99.90;;;;;;5073888;28;20128;-71
2021/08/26 06:41:59;;;;;;;18.10;10.32;;;18.10;99.90;;;;;;5074320;28;20027;-70
2021/08/26 06:44:25;;;;;;;18.65;10.70;;;18.10;99.90;;;;;;5056065;28;20024;-70
2021/08/26 06:46:51;;;;;;;18.02;11.38;;;;;;;;;;5073828;28;20060;-70
2021/08/26 06:49:17;;;;;;;16.83;11.35;;;;;;;;;;5076493;28;20025;-72
2021/08/26 06:51:43;;;;;;;18.60;12.00;;;;;;;;;;5064991;28;20058;-69
2021/08/26 06:54:09;;;;;;;20.00;11.65;;;;;;;;;;5083804;28;20028;-71
2021/08/26 06:56:35;;;;;;;17.25;10.82;;;;;;;;;;5090671;28;20102;-72
2021/08/26 06:59:02;;;;;;;17.27;11.38;;;;;;;;;;5076163;28;20031;-72
2021/08/26 07:01:28;;;;;;;17.80;11.35;;;;;;;;;;5089023;28;20436;-70
2021/08/26 07:03:54;;;;;;;18.02;10.82;;;;;;;;;;5072547;28;20020;-73
2021/08/26 07:06:21;;;;;;;17.08;11.27;;;;;;;;;;5055699;28;20469;-72
2021/08/26 07:08:47;;;;;;;19.00;11.85;;;;;;;;;;5073794;28;20039;-73
2021/08/26 07:11:13;;;;;;;20.40;11.50;;;;;;;;;;5074022;28;20469;-73
2021/08/26 07:13:39;;;;;;;18.23;12.52;;;;;;;;;;5073750;28;20079;-75
2021/08/26 07:16:05;;;;;;;16.95;11.13;;;;;;;;;;5055764;28;20455;-73
2021/08/26 07:18:31;;;;;;;20.02;12.15;;;;;;;;;;5073955;28;20033;-70
2021/08/26 07:20:57;;;;;;;19.45;11.80;;;;;;;;;;5055746;28;20082;-74
2021/08/26 07:23:24;;;;;;;15.65;10.85;;;;;;;;;;5073503;28;20473;-69
2021/08/26 07:25:50;;;;;;;17.35;10.68;;;;;;;;;;5073513;28;20047;-71
2021/08/26 07:28:16;;;;;;;18.40;10.43;;;;;;;;;;5073546;28;20095;-73
2021/08/26 07:30:42;;;;;;;21.83;11.98;;;19.40;99.90;;;;;;5073764;28;20477;-74
2021/08/26 07:33:08;;;;;;;25.38;12.63;;;;;;;;;;5073523;28;20085;-72
2021/08/26 07:35:34;;;;;;;21.08;12.63;;;19.60;99.90;;;;;;5055422;28;20370;-74
2021/08/26 07:38:00;;;;;;;19.30;12.77;;;19.80;99.90;;;;;;5055345;28;20040;-71
2021/08/26 07:40:26;;;;;;;18.80;11.82;;;19.80;99.90;;;;;;5073394;28;20181;-71
2021/08/26 07:42:52;;;;;;;19.73;11.27;;;19.90;99.90;;;;;;5072892;28;20432;-72
2021/08/26 07:45:18;;;;;;;17.13;11.75;;;20.00;99.90;;;;;;5090221;28;20028;-71
2021/08/26 07:47:44;;;;;;;16.50;11.65;;;20.20;99.90;;;;;;5093549;28;20105;-70
2021/08/26 07:50:11;;;;;;;16.05;12.63;;;20.50;99.90;;;;;;5074250;28;20090;-73
2021/08/26 07:52:37;;;;;;;20.80;10.93;;;20.60;99.90;;;;;;5092245;28;20034;-73
2021/08/26 07:55:03;;;;;;;15.98;10.70;;;21.00;98.70;;;;;;5093135;28;20372;-72
2021/08/26 07:57:30;;;;;;;20.40;12.63;;;;;;;;;;5074932;28;20024;-75
2021/08/26 07:59:56;;;;;;;16.25;10.60;;;21.40;99.90;;;;;;5090990;28;20081;-74
2021/08/26 08:02:22;;;;;;;15.48;11.30;;;;;;;;;;5073513;28;20079;-75
2021/08/26 08:04:48;;;;;;;14.40;10.30;;;22.10;98.50;;;;;;5092259;28;20051;-72
2021/08/26 08:07:14;;;;;;;16.05;10.45;;;21.30;96.50;;;;;;5074485;28;20447;-73
2021/08/26 08:09:40;;;;;;;16.33;9.95;;;21.10;95.00;;;;;;5092610;28;20525;-72
2021/08/26 08:12:07;;;;;;;14.70;10.95;;;21.20;94.70;;;;;;5092590;28;20028;-73
2021/08/26 08:14:33;;;;;;;16.38;9.70;;;21.50;94.90;;;;;;5092661;28;20480;-72
2021/08/26 08:16:59;;;;;;;15.65;10.30;;;;;;;;;;5092511;28;20028;-74
2021/08/26 08:19:26;;;;;;;13.45;9.13;;;;;;;;;;5091900;28;20051;-75
2021/08/26 08:21:52;;;;;;;14.18;10.48;;;21.80;99.90;;;;;;5092470;28;20016;-75
2021/08/26 08:24:18;;;;;;;15.65;10.40;;;21.70;92.70;;;;;;5092834;28;20081;-72
2021/08/26 08:26:45;;;;;;;12.40;9.63;;;21.60;95.60;;;;;;5092677;28;20474;-74
2021/08/26 08:29:11;;;;;;;14.75;9.73;;;21.60;94.60;;;;;;5092968;28;20146;-75
2021/08/26 08:31:37;;;;;;;15.68;10.38;;;21.40;92.50;;;;;;5092546;28;20055;-71
2021/08/26 08:34:03;;;;;;;15.57;10.60;;;21.60;92.80;;;;;;5092899;28;20028;-74
2021/08/26 08:36:29;;;;;;;12.02;10.38;;;21.80;91.50;;;;;;5092846;28;20550;-74
2021/08/26 08:38:55;;;;;;;12.38;9.45;;;22.10;91.00;;;;;;5092998;28;20059;-75
2021/08/26 08:41:21;;;;;;;14.20;9.45;;;22.40;90.60;;;;;;5092930;28;20076;-74
2021/08/26 08:43:48;;;;;;;14.65;9.43;;;22.50;90.20;;;;;;5074464;28;20043;-74
2021/08/26 08:46:18;;;;;;;14.40;8.43;;;22.50;88.70;;;;;;5074555;28;20384;-75
2021/08/26 08:48:44;;;;;;;11.55;8.15;;;;;;;;;;5074518;28;20070;-73
2021/08/26 08:51:11;;;;;;;13.20;8.43;;;22.90;85.80;;;;;;5074576;28;20027;-73
2021/08/26 08:53:39;;;;;;;11.80;8.73;;;23.10;90.20;;;;;;5092675;28;20435;-73
2021/08/26 08:56:06;;;;;;;11.20;8.40;;;23.30;91.00;;;;;;5092621;28;20077;-73
2021/08/26 08:58:39;;;;;;;14.23;9.52;;;23.10;86.90;;;;;;5092665;28;20073;-75
2021/08/26 09:01:06;;;;;;;14.07;8.85;;;22.80;93.00;;;;;;5092171;28;20504;-72
2021/08/26 09:03:35;;;;;;;10.77;8.98;;;22.50;88.10;;;;;;5094778;28;20058;-74
2021/08/26 09:06:00;;;;;;;12.07;8.60;;;22.60;88.20;;;;;;5078156;28;20028;-74
2021/08/26 09:08:28;;;;;;;12.25;8.23;;;;;;;;;;5078118;28;20027;-72
2021/08/26 09:11:09;;;;;;;11.50;9.10;;;23.20;86.90;;;;;;5096455;28;20026;-75
2021/08/26 09:13:35;;;;;;;9.30;8.25;;;23.50;84.10;;;;;;5096604;28;20368;-74
2021/08/26 09:16:01;;;;;;;13.07;9.10;;;23.70;83.90;;;;;;5077835;28;20024;-74
2021/08/26 09:18:27;;;;;;;8.88;6.70;;;23.90;87.90;;;;;;5077994;28;20048;-73
2021/08/26 09:20:55;;;;;;;9.02;7.75;;;24.20;81.50;;;;;;5077825;28;20079;-72
2021/08/26 09:23:24;;;;;;;9.23;7.55;;;24.20;82.00;;;;;;5096095;28;20081;-75
2021/08/26 09:25:51;;;;;;;10.27;6.70;;;24.20;82.30;;;;;;5096067;28;20533;-75
2021/08/26 09:28:29;;;;;;;9.10;6.72;;;24.30;82.80;;;;;;5077885;28;20035;-74
2021/08/26 09:31:25;;;;;;;10.55;7.45;;;23.70;80.20;;;;;;5096011;28;20090;-72
2021/08/26 09:34:11;;;;;;;8.63;5.70;;;24.00;81.40;;;;;;4993907;28;20054;-74
2021/08/26 09:36:46;;;;;;;8.77;6.28;;;24.50;81.20;;;;;;4993963;28;20410;-74
2021/08/26 09:39:17;;;;;;;15.65;5.97;;;24.80;79.00;;;;;;4993978;28;20030;-76
2021/08/26 09:41:52;;;;;;;9.27;6.00;;;25.10;78.70;;;;;;4977686;28;20027;-73
2021/08/26 09:44:28;;;;;;;9.32;6.05;;;25.50;77.50;;;;;;4993747;28;20045;-74
2021/08/26 09:46:56;;;;;;;6.10;4.93;;;25.40;74.10;;;;;;4977557;28;20053;-76
2021/08/26 09:49:25;;;;;;;10.35;5.63;;;25.90;73.40;;;;;;4993568;28;20558;-74
2021/08/26 09:52:09;;;;;;;10.82;6.20;;;25.60;71.80;;;;;;4977349;28;20049;-74
2021/08/26 09:54:37;;;;;;;16.88;6.40;;;25.70;73.10;;;;;;4993406;28;20035;-74
2021/08/26 09:57:04;;;;;;;12.82;6.05;;;25.80;74.60;;;;;;4993101;28;20134;-75
2021/08/26 10:00:11;;;;;;;10.93;6.60;;;26.20;72.30;;;;;;4977190;28;20097;-72
2021/08/26 10:02:47;;;;;;;12.25;5.78;;;26.50;75.10;;;;;;4935166;29;20063;-73
2021/08/26 10:05:13;;;;;;;8.85;5.47;;;27.00;69.70;;;;;;4935395;29;20027;-72
2021/08/26 10:07:41;;;;;;;9.20;6.15;;;27.20;70.20;;;;;;4935500;29;20050;-72
2021/08/26 10:10:08;;;;;;;7.47;5.90;;;27.20;73.00;;;;;;4980115;28;20049;-74
2021/08/26 10:12:34;;;;;;;6.65;5.30;;;27.20;73.30;;;;;;5032655;28;20478;-73
2021/08/26 10:15:00;;;;;;;6.90;5.45;;;27.20;70.60;;;;;;5032025;28;20063;-73
2021/08/26 10:17:26;;;;;;;8.50;6.07;;;27.50;69.60;;;;;;5032618;28;20037;-72
2021/08/26 10:19:52;;;;;;;12.70;7.57;;;27.70;71.50;;;;;;5023434;28;20422;-71
2021/08/26 10:22:17;;;;;;;6.38;5.45;;;27.70;69.50;;;;;;5018965;28;20036;-71
2021/08/26 10:24:43;;;;;;;8.35;5.75;;;28.20;65.80;;;;;;5012383;28;20038;-71
2021/08/26 10:27:13;;;;;;;8.93;6.57;;;28.90;66.60;;;;;;5012645;28;20050;-71
2021/08/26 10:29:51;;;;;;;9.48;6.03;;;28.40;65.40;;;;;;4995992;28;20033;-74
2021/08/26 10:32:19;;;;;;;13.93;6.32;;;29.10;66.40;;;;;;5012463;28;20164;-72
2021/08/26 10:35:08;;;;;;;8.32;6.18;;;28.00;65.50;;;;;;5012362;28;20095;-71
2021/08/26 10:37:53;;;;;;;9.40;5.82;;;27.50;66.40;;;;;;5012303;28;20115;-72
2021/08/26 10:40:26;;;;;;;8.98;6.10;;;26.90;68.60;;;;;;5068658;28;20024;-72
2021/08/26 10:42:53;;;;;;;9.02;6.53;;;26.60;70.20;;;;;;5054248;28;20495;-73
2021/08/26 10:45:23;;;;;;;10.43;7.22;;;26.10;68.80;;;;;;5054015;28;20124;-73
2021/08/26 10:47:49;;;;;;;6.40;5.63;;;25.90;70.00;;;;;;5054445;28;20098;-72
2021/08/26 10:50:33;;;;;;;8.35;5.95;;;26.00;70.70;;;;;;5052949;28;20453;-72
2021/08/26 10:53:09;;;;;;;13.52;7.18;;;26.00;70.50;;;;;;5053011;28;20060;-72
2021/08/26 10:55:44;;;;;;;8.73;6.22;;;26.00;70.50;;;;;;5053027;28;20025;-72
2021/08/26 10:58:22;;;;;;;11.02;5.93;;;26.30;70.00;;;;;;5052773;28;20112;-72
2021/08/26 11:00:49;;;;;;;6.68;4.65;;;27.90;69.10;;;;;;5057122;28;20098;-72
2021/08/26 11:03:45;;;;;;;7.53;4.97;;;29.90;62.70;;;;;;5055919;28;20063;-75
2021/08/26 11:06:16;;;;;;;5.40;4.03;;;30.70;60.10;;;;;;5074048;28;20040;-71
2021/08/26 11:08:47;;;;;;;11.20;5.50;;;32.40;57.70;;;;;;5073780;28;20041;-71
2021/08/26 11:11:28;;;;;;;6.13;4.33;;;32.90;57.20;;;;;;5055983;28;20025;-73
2021/08/26 11:14:20;;;;;;;5.68;4.63;;;32.50;55.00;;;;;;5055950;28;20273;-71
2021/08/26 11:16:51;;;;;;;6.30;4.88;;;32.30;54.70;;;;;;5073712;28;20031;-71
2021/08/26 11:19:16;;;;;;;6.15;5.00;;;30.10;58.90;;;;;;5073802;28;20031;-74
2021/08/26 11:24:33;;;;;;;5.22;4.72;;;28.00;63.60;;;;;;5073637;28;20037;-67
2021/08/26 11:27:18;;;;;;;5.20;4.32;;;27.20;65.20;;;;;;5055454;28;20380;-69
2021/08/26 11:29:44;;;;;;;5.07;4.30;;;27.00;65.90;;;;;;5073509;28;20036;-69
2021/08/26 11:32:12;;;;;;;6.90;4.72;;;26.80;66.40;;;;;;5073616;28;20076;-70
2021/08/26 11:34:44;;;;;;;6.70;4.63;;;26.50;65.30;;;;;;5055359;28;20057;-68
2021/08/26 11:37:42;;;;;;;4.70;4.07;;;26.50;67.90;;;;;;5086949;28;20028;-71
2021/08/26 11:40:11;;;;;;;4.53;3.80;;;26.60;69.00;;;;;;5011275;28;20041;-72
2021/08/26 11:42:48;;;;;;;7.50;4.07;;;26.60;68.40;;;;;;4994775;28;20046;-70
2021/08/26 11:45:19;;;;;;;5.60;4.53;;;26.80;68.80;;;;;;5011254;28;20507;-72
2021/08/26 11:47:54;;;;;;;6.05;4.07;;;26.80;69.30;;;;;;4994511;28;20475;-72
2021/08/26 11:50:26;;;;;;;6.05;4.13;;;27.20;68.50;;;;;;5011177;28;20469;-72
2021/08/26 11:52:57;;;;;;;6.90;4.10;;;27.50;67.20;;;;;;4994277;28;20033;-72
2021/08/26 11:55:26;;;;;;;8.30;4.57;;;27.80;66.00;;;;;;5011098;28;20108;-71
2021/08/26 11:58:00;;;;;;;7.75;5.05;;;28.70;65.70;;;;;;4994522;28;20029;-72
2021/08/26 12:00:27;;;;;;;6.05;5.10;;;30.20;62.70;;;;;;4994200;28;20030;-72
2021/08/26 12:02:57;;;;;;;7.20;4.40;;;32.00;60.00;;;;;;5010561;28;20069;-71
2021/08/26 12:05:24;;;;;;;6.65;4.05;;;35.40;53.80;;;;;;4994297;28;20084;-73
2021/08/26 12:07:52;;;;;;;4.43;3.75;;;35.60;51.30;;;;;;5010632;28;20041;-73
2021/08/26 12:10:24;;;;;;;6.43;4.32;;;36.20;50.50;;;;;;5010886;28;20038;-71
2021/08/26 12:13:05;;;;;;;6.18;5.40;;;35.20;51.80;;;;;;4994395;28;20061;-71
2021/08/26 12:15:36;;;;;;;7.40;4.03;;;34.40;52.50;;;;;;5020071;28;20037;-71
2021/08/26 12:18:11;;;;;;;4.85;4.30;;;34.70;52.20;;;;;;5032999;28;20481;-71
2021/08/26 12:20:48;;;;;;;8.07;5.05;;;33.50;53.00;;;;;;5032977;28;20076;-70
2021/08/26 12:23:17;;;;;;;4.85;4.40;;;33.10;54.20;;;;;;5033151;28;20030;-71
2021/08/26 12:25:43;;;;;;;5.53;4.22;;;34.90;52.90;;;;;;5032701;28;20037;-73
2021/08/26 12:28:12;;;;;;;6.28;4.35;;;36.30;50.70;;;;;;5032840;28;20469;-74
2021/08/26 12:30:43;;;;;;;7.15;4.57;;;37.70;48.60;;;;;;5031166;28;20382;-74
2021/08/26 12:33:21;;;;;;;5.25;4.00;;;38.30;48.10;;;;;;5031890;28;20033;-73
2021/08/26 12:35:55;;;;;;;5.85;4.32;;;38.60;48.40;;;;;;5031081;28;20037;-73
2021/08/26 12:38:42;;;;;;;6.78;4.72;;;39.30;46.10;;;;;;5033900;28;20112;-74
2021/08/26 12:41:21;;;;;;;6.20;4.20;;;39.60;45.50;;;;;;5036109;28;20038;-73
2021/08/26 12:43:55;;;;;;;7.65;4.28;;;40.20;45.60;;;;;;5036660;28;20459;-75
2021/08/26 12:46:24;;;;;;;5.38;3.88;;;40.50;45.00;;;;;;5036771;28;20029;-74
2021/08/26 12:49:03;;;;;;;5.22;3.72;;;40.10;44.90;;;;;;5036683;28;20033;-73
2021/08/26 12:51:29;;;;;;;4.05;3.70;;;40.70;44.10;;;;;;5036680;28;20474;-73
2021/08/26 12:54:01;;;;;;;5.65;4.03;;;41.00;43.80;;;;;;5036660;28;20053;-75
2021/08/26 12:56:28;;;;;;;4.32;3.92;;;42.10;48.50;;;;;;5036579;28;20037;-74
2021/08/26 12:59:02;;;;;;;4.30;3.88;;;41.30;42.80;;;;;;5035254;28;20033;-73